sensor_id;sensor_type;location;lat;lon;timestamp;pressure;altitude;pressure_sealevel;temperature;humidity
63691;BME280;49837;57.280;27.070;2024-03-07T00:00:51;101473.55;;;-6.98;100.0
63691;BME280;49837;57.280;27.070;2024-03-07T00:01:51;101469.79;;;-6.97;100.0
63691;BME280;49837;57.280;27.070;2024-03-07T00:02:52;101468.76;;;-6.96;100.0
63691;BME280;49837;57.280;27.070;2024-03-07T00:03:52;101465.52;;;-6.96;100.0
63691;BME280;49837;57.280;27.070;2024-03-07T00:04:53;101468.17;;;-6.95;100.0
63691;BME280;49837;57.280;27.070;2024-03-07T00:05:53;101465.73;;;-6.94;100.0
63691;BME280;49837;57.280;27.070;2024-03-07T00:06:53;101461.87;;;-6.91;100.0
63691;BME280;49837;57.280;27.070;2024-03-07T00:07:54;101458.56;;;-6.88;100.0
63691;BME280;49837;57.280;27.070;2024-03-07T00:08:54;101460.09;;;-6.87;100.0
63691;BME280;49837;57.280;27.070;2024-03-07T00:09:55;101455.2;;;-6.88;100.0
63691;BME280;49837;57.280;27.070;2024-03-07T00:10:55;101457.91;;;-6.87;100.0
63691;BME280;49837;57.280;27.070;2024-03-07T00:11:55;101456.27;;;-6.87;100.0
63691;BME280;49837;57.280;27.070;2024-03-07T00:12:56;101452.89;;;-6.88;100.0
63691;BME280;49837;57.280;27.070;2024-03-07T00:13:56;101456.23;;;-6.89;100.0
63691;BME280;49837;57.280;27.070;2024-03-07T00:14:56;101456.23;;;-6.9;100.0
63691;BME280;49837;57.280;27.070;2024-03-07T00:15:57;101457.45;;;-6.91;100.0
63691;BME280;49837;57.280;27.070;2024-03-07T00:16:58;101456.55;;;-6.93;100.0
63691;BME280;49837;57.280;27.070;2024-03-07T00:17:58;101451.14;;;-6.95;100.0
63691;BME280;49837;57.280;27.070;2024-03-07T00:18:58;101450.4;;;-6.99;100.0
63691;BME280;49837;57.280;27.070;2024-03-07T00:19:58;101446.53;;;-7.03;100.0
63691;BME280;49837;57.280;27.070;2024-03-07T00:20:59;101444.39;;;-7.06;100.0
63691;BME280;49837;57.280;27.070;2024-03-07T00:21:59;101442.24;;;-7.08;100.0
63691;BME280;49837;57.280;27.070;2024-03-07T00:23:00;101442.89;;;-7.08;100.0
63691;BME280;49837;57.280;27.070;2024-03-07T00:24:00;101444.37;;;-7.03;100.0
63691;BME280;49837;57.280;27.070;2024-03-07T00:25:00;101443.88;;;-6.99;100.0
63691;BME280;49837;57.280;27.070;2024-03-07T00:26:01;101441.16;;;-6.96;100.0
63691;BME280;49837;57.280;27.070;2024-03-07T00:27:01;101440.23;;;-6.93;100.0
63691;BME280;49837;57.280;27.070;2024-03-07T00:28:02;101439.16;;;-6.91;100.0
63691;BME280;49837;57.280;27.070;2024-03-07T00:29:02;101439.41;;;-6.89;100.0
63691;BME280;49837;57.280;27.070;2024-03-07T00:30:06;101437.03;;;-6.88;100.0
63691;BME280;49837;57.280;27.070;2024-03-07T00:31:04;101436.33;;;-6.87;100.0
63691;BME280;49837;57.280;27.070;2024-03-07T00:32:04;101431.87;;;-6.88;100.0
63691;BME280;49837;57.280;27.070;2024-03-07T00:33:05;101433.46;;;-6.91;100.0
63691;BME280;49837;57.280;27.070;2024-03-07T00:34:05;101436.34;;;-6.89;100.0
63691;BME280;49837;57.280;27.070;2024-03-07T00:35:08;101426.19;;;-6.88;100.0
63691;BME280;49837;57.280;27.070;2024-03-07T00:36:08;101424.26;;;-6.88;100.0
63691;BME280;49837;57.280;27.070;2024-03-07T00:37:08;101424.78;;;-6.86;100.0
63691;BME280;49837;57.280;27.070;2024-03-07T00:38:09;101425.93;;;-6.82;100.0
63691;BME280;49837;57.280;27.070;2024-03-07T00:39:10;101420.55;;;-6.85;100.0
63691;BME280;49837;57.280;27.070;2024-03-07T00:40:10;101424.88;;;-6.87;100.0
63691;BME280;49837;57.280;27.070;2024-03-07T00:41:10;101425.02;;;-6.9;100.0
63691;BME280;49837;57.280;27.070;2024-03-07T00:42:10;101421.55;;;-6.87;100.0
63691;BME280;49837;57.280;27.070;2024-03-07T00:43:11;101428.36;;;-6.83;100.0
63691;BME280;49837;57.280;27.070;2024-03-07T00:44:11;101427.01;;;-6.94;100.0
63691;BME280;49837;57.280;27.070;2024-03-07T00:45:11;101427.55;;;-6.91;100.0
63691;BME280;49837;57.280;27.070;2024-03-07T00:46:12;101424.7;;;-6.86;100.0
63691;BME280;49837;57.280;27.070;2024-03-07T00:47:12;101422.38;;;-6.84;100.0
63691;BME280;49837;57.280;27.070;2024-03-07T00:48:13;101419.47;;;-6.82;100.0
63691;BME280;49837;57.280;27.070;2024-03-07T00:49:13;101423.27;;;-6.83;100.0
63691;BME280;49837;57.280;27.070;2024-03-07T00:50:14;101423.67;;;-6.68;100.0
63691;BME280;49837;57.280;27.070;2024-03-07T00:51:14;101424.05;;;-6.73;100.0
63691;BME280;49837;57.280;27.070;2024-03-07T00:52:15;101418.95;;;-6.82;100.0
63691;BME280;49837;57.280;27.070;2024-03-07T00:53:15;101418.7;;;-6.81;100.0
63691;BME280;49837;57.280;27.070;2024-03-07T00:54:15;101422.83;;;-6.85;100.0
63691;BME280;49837;57.280;27.070;2024-03-07T00:55:15;101417.79;;;-6.87;100.0
63691;BME280;49837;57.280;27.070;2024-03-07T00:56:16;101418.56;;;-6.84;100.0
63691;BME280;49837;57.280;27.070;2024-03-07T00:57:16;101417.23;;;-6.9;100.0
63691;BME280;49837;57.280;27.070;2024-03-07T00:58:16;101416.94;;;-6.88;100.0
63691;BME280;49837;57.280;27.070;2024-03-07T00:59:17;101417.59;;;-6.83;100.0
63691;BME280;49837;57.280;27.070;2024-03-07T01:00:18;101419.48;;;-6.91;100.0
63691;BME280;49837;57.280;27.070;2024-03-07T01:01:18;101420.89;;;-6.87;100.0
63691;BME280;49837;57.280;27.070;2024-03-07T01:02:18;101423.11;;;-6.94;100.0
63691;BME280;49837;57.280;27.070;2024-03-07T01:03:18;101425.3;;;-6.99;100.0
63691;BME280;49837;57.280;27.070;2024-03-07T01:04:19;101424.59;;;-7.05;100.0
63691;BME280;49837;57.280;27.070;2024-03-07T01:05:19;101421.12;;;-6.95;100.0
63691;BME280;49837;57.280;27.070;2024-03-07T01:06:20;101423.52;;;-6.99;100.0
63691;BME280;49837;57.280;27.070;2024-03-07T01:07:20;101421.38;;;-6.91;100.0
63691;BME280;49837;57.280;27.070;2024-03-07T01:08:20;101414.81;;;-6.97;100.0
63691;BME280;49837;57.280;27.070;2024-03-07T01:09:21;101422.71;;;-6.84;100.0
63691;BME280;49837;57.280;27.070;2024-03-07T01:10:21;101417.85;;;-6.85;100.0
63691;BME280;49837;57.280;27.070;2024-03-07T01:11:21;101423.27;;;-6.84;100.0
63691;BME280;49837;57.280;27.070;2024-03-07T01:12:22;101420.95;;;-6.75;100.0
63691;BME280;49837;57.280;27.070;2024-03-07T01:13:22;101417.57;;;-6.72;100.0
63691;BME280;49837;57.280;27.070;2024-03-07T01:14:23;101419.2;;;-6.81;100.0
63691;BME280;49837;57.280;27.070;2024-03-07T01:15:23;101418.59;;;-6.8;100.0
63691;BME280;49837;57.280;27.070;2024-03-07T01:16:23;101419.25;;;-6.7;100.0
63691;BME280;49837;57.280;27.070;2024-03-07T01:17:24;101418.23;;;-6.81;100.0
63691;BME280;49837;57.280;27.070;2024-03-07T01:18:24;101420.22;;;-6.76;100.0
63691;BME280;49837;57.280;27.070;2024-03-07T01:19:24;101417.91;;;-6.81;100.0
63691;BME280;49837;57.280;27.070;2024-03-07T01:20:25;101423.29;;;-6.65;100.0
63691;BME280;49837;57.280;27.070;2024-03-07T01:21:25;101420.08;;;-6.61;100.0
63691;BME280;49837;57.280;27.070;2024-03-07T01:22:26;101419.59;;;-6.62;100.0
63691;BME280;49837;57.280;27.070;2024-03-07T01:23:26;101415.09;;;-6.55;100.0
63691;BME280;49837;57.280;27.070;2024-03-07T01:24:26;101417.69;;;-6.42;100.0
63691;BME280;49837;57.280;27.070;2024-03-07T01:25:27;101417.87;;;-6.44;100.0
63691;BME280;49837;57.280;27.070;2024-03-07T01:26:28;101420.88;;;-6.38;100.0
63691;BME280;49837;57.280;27.070;2024-03-07T01:27:28;101426.25;;;-6.39;100.0
63691;BME280;49837;57.280;27.070;2024-03-07T01:28:29;101419.77;;;-6.5;100.0
63691;BME280;49837;57.280;27.070;2024-03-07T01:29:29;101419.23;;;-6.37;100.0
63691;BME280;49837;57.280;27.070;2024-03-07T01:30:29;101416.4;;;-6.35;100.0
63691;BME280;49837;57.280;27.070;2024-03-07T01:31:30;101417.78;;;-6.34;100.0
63691;BME280;49837;57.280;27.070;2024-03-07T01:32:30;101416.2;;;-6.31;100.0
63691;BME280;49837;57.280;27.070;2024-03-07T01:33:30;101418.67;;;-6.2;100.0
63691;BME280;49837;57.280;27.070;2024-03-07T01:34:31;101418.96;;;-6.26;100.0
63691;BME280;49837;57.280;27.070;2024-03-07T01:35:31;101414.56;;;-6.22;100.0
63691;BME280;49837;57.280;27.070;2024-03-07T01:36:32;101415.61;;;-6.25;100.0
63691;BME280;49837;57.280;27.070;2024-03-07T01:37:32;101417.01;;;-6.2;100.0
63691;BME280;49837;57.280;27.070;2024-03-07T01:38:32;101416.02;;;-6.21;100.0
63691;BME280;49837;57.280;27.070;2024-03-07T01:39:33;101414.09;;;-6.11;100.0
63691;BME280;49837;57.280;27.070;2024-03-07T01:40:33;101412.7;;;-6.11;100.0
63691;BME280;49837;57.280;27.070;2024-03-07T01:41:34;101413.68;;;-6.09;100.0
63691;BME280;49837;57.280;27.070;2024-03-07T01:42:34;101412.24;;;-6.15;100.0
63691;BME280;49837;57.280;27.070;2024-03-07T01:43:34;101414.03;;;-6.25;100.0
63691;BME280;49837;57.280;27.070;2024-03-07T01:44:35;101414.13;;;-6.16;100.0
63691;BME280;49837;57.280;27.070;2024-03-07T01:45:36;101412.14;;;-6.07;100.0
63691;BME280;49837;57.280;27.070;2024-03-07T01:46:36;101412.56;;;-6.02;100.0
63691;BME280;49837;57.280;27.070;2024-03-07T01:47:36;101414.78;;;-5.99;100.0
63691;BME280;49837;57.280;27.070;2024-03-07T01:48:37;101407.05;;;-5.99;100.0
63691;BME280;49837;57.280;27.070;2024-03-07T01:49:37;101409.64;;;-5.96;100.0
63691;BME280;49837;57.280;27.070;2024-03-07T01:50:37;101408.3;;;-5.91;100.0
63691;BME280;49837;57.280;27.070;2024-03-07T01:51:38;101404.42;;;-5.92;100.0
63691;BME280;49837;57.280;27.070;2024-03-07T01:52:40;101406.48;;;-5.94;100.0
63691;BME280;49837;57.280;27.070;2024-03-07T01:53:38;101404.42;;;-5.85;100.0
63691;BME280;49837;57.280;27.070;2024-03-07T01:54:39;101401.28;;;-5.81;100.0
63691;BME280;49837;57.280;27.070;2024-03-07T01:55:39;101406.09;;;-5.78;100.0
63691;BME280;49837;57.280;27.070;2024-03-07T01:56:39;101406.45;;;-5.66;100.0
63691;BME280;49837;57.280;27.070;2024-03-07T01:57:40;101403.73;;;-5.69;100.0
63691;BME280;49837;57.280;27.070;2024-03-07T01:58:40;101405.24;;;-5.77;100.0
63691;BME280;49837;57.280;27.070;2024-03-07T01:59:41;101400.09;;;-5.86;100.0
63691;BME280;49837;57.280;27.070;2024-03-07T02:00:41;101401.16;;;-5.8;100.0
63691;BME280;49837;57.280;27.070;2024-03-07T02:01:42;101406.95;;;-5.82;100.0
63691;BME280;49837;57.280;27.070;2024-03-07T02:02:42;101404.04;;;-5.99;100.0
63691;BME280;49837;57.280;27.070;2024-03-07T02:03:42;101407.18;;;-6.11;100.0
63691;BME280;49837;57.280;27.070;2024-03-07T02:04:43;101406.24;;;-6.2;100.0
63691;BME280;49837;57.280;27.070;2024-03-07T02:05:43;101400.91;;;-6.17;100.0
63691;BME280;49837;57.280;27.070;2024-03-07T02:06:43;101403.0;;;-6.12;100.0
63691;BME280;49837;57.280;27.070;2024-03-07T02:07:44;101399.23;;;-6.2;100.0
63691;BME280;49837;57.280;27.070;2024-03-07T02:08:44;101404.39;;;-6.21;100.0
63691;BME280;49837;57.280;27.070;2024-03-07T02:09:44;101400.27;;;-6.14;100.0
63691;BME280;49837;57.280;27.070;2024-03-07T02:10:45;101406.48;;;-6.03;100.0
63691;BME280;49837;57.280;27.070;2024-03-07T02:11:47;101399.22;;;-5.96;100.0
63691;BME280;49837;57.280;27.070;2024-03-07T02:12:46;101398.32;;;-5.92;100.0
63691;BME280;49837;57.280;27.070;2024-03-07T02:13:46;101401.31;;;-5.95;100.0
63691;BME280;49837;57.280;27.070;2024-03-07T02:14:46;101398.75;;;-6.02;100.0
63691;BME280;49837;57.280;27.070;2024-03-07T02:15:47;101402.78;;;-6.06;100.0
63691;BME280;49837;57.280;27.070;2024-03-07T02:16:47;101396.98;;;-6.12;100.0
63691;BME280;49837;57.280;27.070;2024-03-07T02:17:48;101396.41;;;-6.12;100.0
63691;BME280;49837;57.280;27.070;2024-03-07T02:18:48;101393.81;;;-6.09;100.0
63691;BME280;49837;57.280;27.070;2024-03-07T02:19:48;101398.85;;;-6.12;100.0
63691;BME280;49837;57.280;27.070;2024-03-07T02:20:49;101390.91;;;-6.16;100.0
63691;BME280;49837;57.280;27.070;2024-03-07T02:21:49;101393.83;;;-6.2;100.0
63691;BME280;49837;57.280;27.070;2024-03-07T02:22:49;101391.77;;;-6.21;100.0
63691;BME280;49837;57.280;27.070;2024-03-07T02:23:50;101393.03;;;-6.19;100.0
63691;BME280;49837;57.280;27.070;2024-03-07T02:24:50;101390.64;;;-6.01;100.0
63691;BME280;49837;57.280;27.070;2024-03-07T02:25:51;101385.88;;;-6.0;100.0
63691;BME280;49837;57.280;27.070;2024-03-07T02:26:51;101386.09;;;-6.03;100.0
63691;BME280;49837;57.280;27.070;2024-03-07T02:27:51;101382.92;;;-6.03;100.0
63691;BME280;49837;57.280;27.070;2024-03-07T02:28:52;101386.45;;;-5.98;100.0
63691;BME280;49837;57.280;27.070;2024-03-07T02:29:52;101377.84;;;-6.04;100.0
63691;BME280;49837;57.280;27.070;2024-03-07T02:30:53;101387.27;;;-6.1;100.0
63691;BME280;49837;57.280;27.070;2024-03-07T02:31:53;101386.34;;;-6.21;100.0
63691;BME280;49837;57.280;27.070;2024-03-07T02:32:53;101384.48;;;-6.33;100.0
63691;BME280;49837;57.280;27.070;2024-03-07T02:33:54;101388.09;;;-6.27;100.0
63691;BME280;49837;57.280;27.070;2024-03-07T02:34:54;101387.92;;;-6.31;100.0
63691;BME280;49837;57.280;27.070;2024-03-07T02:35:55;101385.75;;;-6.27;100.0
63691;BME280;49837;57.280;27.070;2024-03-07T02:36:55;101386.66;;;-6.12;100.0
63691;BME280;49837;57.280;27.070;2024-03-07T02:37:55;101389.2;;;-6.09;100.0
63691;BME280;49837;57.280;27.070;2024-03-07T02:38:56;101385.5;;;-6.15;100.0
63691;BME280;49837;57.280;27.070;2024-03-07T02:39:57;101382.34;;;-5.96;100.0
63691;BME280;49837;57.280;27.070;2024-03-07T02:40:56;101383.25;;;-5.97;100.0
63691;BME280;49837;57.280;27.070;2024-03-07T02:41:57;101380.8;;;-6.1;100.0
63691;BME280;49837;57.280;27.070;2024-03-07T02:42:57;101383.05;;;-6.01;100.0
63691;BME280;49837;57.280;27.070;2024-03-07T02:43:58;101380.61;;;-6.03;100.0
63691;BME280;49837;57.280;27.070;2024-03-07T02:44:58;101380.39;;;-6.11;100.0
63691;BME280;49837;57.280;27.070;2024-03-07T02:45:58;101383.28;;;-6.01;100.0
63691;BME280;49837;57.280;27.070;2024-03-07T02:46:59;101379.64;;;-6.01;100.0
63691;BME280;49837;57.280;27.070;2024-03-07T02:47:59;101381.64;;;-6.0;100.0
63691;BME280;49837;57.280;27.070;2024-03-07T02:49:00;101378.72;;;-5.91;100.0
63691;BME280;49837;57.280;27.070;2024-03-07T02:50:00;101378.98;;;-6.01;100.0
63691;BME280;49837;57.280;27.070;2024-03-07T02:51:00;101379.97;;;-6.05;100.0
63691;BME280;49837;57.280;27.070;2024-03-07T02:52:01;101380.56;;;-5.88;100.0
63691;BME280;49837;57.280;27.070;2024-03-07T02:53:01;101379.0;;;-5.8;100.0
63691;BME280;49837;57.280;27.070;2024-03-07T02:54:02;101378.88;;;-5.7;100.0
63691;BME280;49837;57.280;27.070;2024-03-07T02:55:02;101375.88;;;-5.79;100.0
63691;BME280;49837;57.280;27.070;2024-03-07T02:56:03;101375.45;;;-5.92;100.0
63691;BME280;49837;57.280;27.070;2024-03-07T02:57:03;101375.69;;;-5.86;100.0
63691;BME280;49837;57.280;27.070;2024-03-07T02:58:03;101373.28;;;-5.76;100.0
63691;BME280;49837;57.280;27.070;2024-03-07T02:59:03;101375.38;;;-5.71;100.0
63691;BME280;49837;57.280;27.070;2024-03-07T03:00:05;101368.98;;;-5.73;100.0
63691;BME280;49837;57.280;27.070;2024-03-07T03:01:04;101375.38;;;-5.7;100.0
63691;BME280;49837;57.280;27.070;2024-03-07T03:02:05;101371.45;;;-5.65;100.0
63691;BME280;49837;57.280;27.070;2024-03-07T03:03:05;101375.12;;;-5.69;100.0
63691;BME280;49837;57.280;27.070;2024-03-07T03:04:05;101375.02;;;-5.7;100.0
63691;BME280;49837;57.280;27.070;2024-03-07T03:05:07;101374.08;;;-5.68;100.0
63691;BME280;49837;57.280;27.070;2024-03-07T03:06:07;101373.58;;;-5.74;100.0
63691;BME280;49837;57.280;27.070;2024-03-07T03:07:07;101374.53;;;-5.72;100.0
63691;BME280;49837;57.280;27.070;2024-03-07T03:08:08;101372.03;;;-5.67;100.0
63691;BME280;49837;57.280;27.070;2024-03-07T03:09:08;101369.68;;;-5.81;100.0
63691;BME280;49837;57.280;27.070;2024-03-07T03:10:09;101369.83;;;-5.91;100.0
63691;BME280;49837;57.280;27.070;2024-03-07T03:11:09;101368.78;;;-5.93;100.0
63691;BME280;49837;57.280;27.070;2024-03-07T03:12:09;101362.47;;;-5.91;100.0
63691;BME280;49837;57.280;27.070;2024-03-07T03:13:10;101365.56;;;-5.91;100.0
63691;BME280;49837;57.280;27.070;2024-03-07T03:14:11;101360.38;;;-5.87;100.0
63691;BME280;49837;57.280;27.070;2024-03-07T03:15:10;101363.3;;;-5.88;100.0
63691;BME280;49837;57.280;27.070;2024-03-07T03:16:11;101360.7;;;-5.87;100.0
63691;BME280;49837;57.280;27.070;2024-03-07T03:17:11;101355.14;;;-5.82;100.0
63691;BME280;49837;57.280;27.070;2024-03-07T03:18:12;101356.58;;;-5.8;100.0
63691;BME280;49837;57.280;27.070;2024-03-07T03:19:12;101359.14;;;-5.76;100.0
63691;BME280;49837;57.280;27.070;2024-03-07T03:20:13;101360.44;;;-5.75;100.0
63691;BME280;49837;57.280;27.070;2024-03-07T03:21:13;101359.67;;;-5.74;100.0
63691;BME280;49837;57.280;27.070;2024-03-07T03:22:13;101360.55;;;-5.8;100.0
63691;BME280;49837;57.280;27.070;2024-03-07T03:23:14;101356.42;;;-5.86;100.0
63691;BME280;49837;57.280;27.070;2024-03-07T03:24:18;101352.74;;;-5.87;100.0
63691;BME280;49837;57.280;27.070;2024-03-07T03:25:19;101354.0;;;-5.85;100.0
63691;BME280;49837;57.280;27.070;2024-03-07T03:26:18;101355.17;;;-5.91;100.0
63691;BME280;49837;57.280;27.070;2024-03-07T03:27:19;101354.59;;;-5.93;100.0
63691;BME280;49837;57.280;27.070;2024-03-07T03:28:19;101353.43;;;-5.93;100.0
63691;BME280;49837;57.280;27.070;2024-03-07T03:29:20;101351.2;;;-5.97;100.0
63691;BME280;49837;57.280;27.070;2024-03-07T03:30:20;101353.53;;;-5.94;100.0
63691;BME280;49837;57.280;27.070;2024-03-07T03:31:20;101355.3;;;-5.92;100.0
63691;BME280;49837;57.280;27.070;2024-03-07T03:32:20;101354.0;;;-5.94;100.0
63691;BME280;49837;57.280;27.070;2024-03-07T03:33:21;101350.61;;;-5.94;100.0
63691;BME280;49837;57.280;27.070;2024-03-07T03:34:21;101353.02;;;-5.99;100.0
63691;BME280;49837;57.280;27.070;2024-03-07T03:35:22;101349.52;;;-6.02;100.0
63691;BME280;49837;57.280;27.070;2024-03-07T03:36:22;101352.86;;;-5.99;100.0
63691;BME280;49837;57.280;27.070;2024-03-07T03:37:23;101352.07;;;-5.94;100.0
63691;BME280;49837;57.280;27.070;2024-03-07T03:38:23;101349.34;;;-5.89;100.0
63691;BME280;49837;57.280;27.070;2024-03-07T03:39:23;101352.31;;;-5.94;100.0
63691;BME280;49837;57.280;27.070;2024-03-07T03:40:24;101349.73;;;-5.92;100.0
63691;BME280;49837;57.280;27.070;2024-03-07T03:41:24;101348.02;;;-5.86;100.0
63691;BME280;49837;57.280;27.070;2024-03-07T03:42:25;101352.07;;;-5.94;100.0
63691;BME280;49837;57.280;27.070;2024-03-07T03:43:25;101348.77;;;-5.97;100.0
63691;BME280;49837;57.280;27.070;2024-03-07T03:44:25;101351.53;;;-5.97;100.0
63691;BME280;49837;57.280;27.070;2024-03-07T03:45:26;101348.82;;;-5.94;100.0
63691;BME280;49837;57.280;27.070;2024-03-07T03:46:26;101351.73;;;-5.97;100.0
63691;BME280;49837;57.280;27.070;2024-03-07T03:47:26;101353.28;;;-6.08;100.0
63691;BME280;49837;57.280;27.070;2024-03-07T03:48:27;101353.2;;;-6.03;100.0
63691;BME280;49837;57.280;27.070;2024-03-07T03:49:27;101347.45;;;-6.09;100.0
63691;BME280;49837;57.280;27.070;2024-03-07T03:50:28;101350.43;;;-6.08;100.0
63691;BME280;49837;57.280;27.070;2024-03-07T03:51:28;101346.45;;;-6.08;100.0
63691;BME280;49837;57.280;27.070;2024-03-07T03:52:28;101348.67;;;-6.06;100.0
63691;BME280;49837;57.280;27.070;2024-03-07T03:53:29;101352.8;;;-6.08;100.0
63691;BME280;49837;57.280;27.070;2024-03-07T03:54:29;101346.69;;;-6.08;100.0
63691;BME280;49837;57.280;27.070;2024-03-07T03:55:30;101350.34;;;-6.06;100.0
63691;BME280;49837;57.280;27.070;2024-03-07T03:56:30;101350.16;;;-6.05;100.0
63691;BME280;49837;57.280;27.070;2024-03-07T03:57:31;101351.02;;;-6.05;100.0
63691;BME280;49837;57.280;27.070;2024-03-07T03:58:31;101350.75;;;-5.99;100.0
63691;BME280;49837;57.280;27.070;2024-03-07T03:59:31;101347.78;;;-5.98;100.0
63691;BME280;49837;57.280;27.070;2024-03-07T04:00:32;101350.44;;;-6.0;100.0
63691;BME280;49837;57.280;27.070;2024-03-07T04:01:32;101349.23;;;-5.93;100.0
63691;BME280;49837;57.280;27.070;2024-03-07T04:02:32;101345.75;;;-5.91;100.0
63691;BME280;49837;57.280;27.070;2024-03-07T04:03:33;101348.26;;;-5.93;100.0
63691;BME280;49837;57.280;27.070;2024-03-07T04:04:33;101346.12;;;-5.99;100.0
63691;BME280;49837;57.280;27.070;2024-03-07T04:05:34;101342.47;;;-5.97;100.0
63691;BME280;49837;57.280;27.070;2024-03-07T04:06:34;101344.25;;;-5.99;100.0
63691;BME280;49837;57.280;27.070;2024-03-07T04:07:35;101342.52;;;-6.02;100.0
63691;BME280;49837;57.280;27.070;2024-03-07T04:08:35;101341.49;;;-6.03;100.0
63691;BME280;49837;57.280;27.070;2024-03-07T04:09:35;101339.35;;;-6.05;100.0
63691;BME280;49837;57.280;27.070;2024-03-07T04:10:36;101342.6;;;-6.07;100.0
63691;BME280;49837;57.280;27.070;2024-03-07T04:11:36;101340.47;;;-6.04;100.0
63691;BME280;49837;57.280;27.070;2024-03-07T04:12:38;101338.17;;;-5.98;100.0
63691;BME280;49837;57.280;27.070;2024-03-07T04:13:37;101338.03;;;-5.98;100.0
63691;BME280;49837;57.280;27.070;2024-03-07T04:14:41;101341.15;;;-6.02;100.0
63691;BME280;49837;57.280;27.070;2024-03-07T04:15:38;101337.02;;;-6.08;100.0
63691;BME280;49837;57.280;27.070;2024-03-07T04:16:39;101339.62;;;-6.06;100.0
63691;BME280;49837;57.280;27.070;2024-03-07T04:17:40;101339.58;;;-6.06;100.0
63691;BME280;49837;57.280;27.070;2024-03-07T04:18:40;101336.28;;;-6.07;100.0
63691;BME280;49837;57.280;27.070;2024-03-07T04:19:42;101334.17;;;-5.99;100.0
63691;BME280;49837;57.280;27.070;2024-03-07T04:20:41;101328.66;;;-5.99;100.0
63691;BME280;49837;57.280;27.070;2024-03-07T04:21:41;101332.56;;;-5.99;100.0
63691;BME280;49837;57.280;27.070;2024-03-07T04:22:42;101329.52;;;-5.96;100.0
63691;BME280;49837;57.280;27.070;2024-03-07T04:23:42;101331.09;;;-5.97;100.0
63691;BME280;49837;57.280;27.070;2024-03-07T04:24:43;101331.11;;;-5.95;100.0
63691;BME280;49837;57.280;27.070;2024-03-07T04:25:43;101328.48;;;-6.02;100.0
63691;BME280;49837;57.280;27.070;2024-03-07T04:26:43;101330.94;;;-6.03;100.0
63691;BME280;49837;57.280;27.070;2024-03-07T04:27:44;101325.58;;;-6.08;100.0
63691;BME280;49837;57.280;27.070;2024-03-07T04:28:44;101328.66;;;-6.18;100.0
63691;BME280;49837;57.280;27.070;2024-03-07T04:29:45;101324.55;;;-6.16;100.0
63691;BME280;49837;57.280;27.070;2024-03-07T04:30:45;101325.68;;;-6.12;100.0
63691;BME280;49837;57.280;27.070;2024-03-07T04:31:45;101326.71;;;-6.1;100.0
63691;BME280;49837;57.280;27.070;2024-03-07T04:32:46;101325.36;;;-6.13;100.0
63691;BME280;49837;57.280;27.070;2024-03-07T04:33:46;101325.24;;;-6.15;100.0
63691;BME280;49837;57.280;27.070;2024-03-07T04:34:46;101322.91;;;-6.16;100.0
63691;BME280;49837;57.280;27.070;2024-03-07T04:35:47;101325.45;;;-6.16;100.0
63691;BME280;49837;57.280;27.070;2024-03-07T04:36:47;101325.14;;;-6.17;100.0
63691;BME280;49837;57.280;27.070;2024-03-07T04:37:48;101319.3;;;-6.11;100.0
63691;BME280;49837;57.280;27.070;2024-03-07T04:38:48;101324.28;;;-6.1;100.0
63691;BME280;49837;57.280;27.070;2024-03-07T04:39:48;101321.33;;;-6.14;100.0
63691;BME280;49837;57.280;27.070;2024-03-07T04:40:50;101314.91;;;-6.14;100.0
63691;BME280;49837;57.280;27.070;2024-03-07T04:41:49;101323.48;;;-6.16;100.0
63691;BME280;49837;57.280;27.070;2024-03-07T04:42:50;101317.84;;;-6.18;100.0
63691;BME280;49837;57.280;27.070;2024-03-07T04:43:50;101320.05;;;-6.15;100.0
63691;BME280;49837;57.280;27.070;2024-03-07T04:44:50;101319.19;;;-6.18;100.0
63691;BME280;49837;57.280;27.070;2024-03-07T04:45:51;101315.79;;;-6.17;100.0
63691;BME280;49837;57.280;27.070;2024-03-07T04:46:51;101315.55;;;-6.19;100.0
63691;BME280;49837;57.280;27.070;2024-03-07T04:47:52;101314.08;;;-6.2;100.0
63691;BME280;49837;57.280;27.070;2024-03-07T04:48:53;101313.2;;;-6.21;100.0
63691;BME280;49837;57.280;27.070;2024-03-07T04:49:54;101316.91;;;-6.2;100.0
63691;BME280;49837;57.280;27.070;2024-03-07T04:50:54;101315.8;;;-6.24;100.0
63691;BME280;49837;57.280;27.070;2024-03-07T04:51:56;101314.05;;;-6.26;100.0
63691;BME280;49837;57.280;27.070;2024-03-07T04:52:55;101315.2;;;-6.28;100.0
63691;BME280;49837;57.280;27.070;2024-03-07T04:53:55;101313.41;;;-6.26;100.0
63691;BME280;49837;57.280;27.070;2024-03-07T04:54:56;101315.44;;;-6.23;100.0
63691;BME280;49837;57.280;27.070;2024-03-07T04:55:56;101313.48;;;-6.23;100.0
63691;BME280;49837;57.280;27.070;2024-03-07T04:56:56;101313.74;;;-6.21;100.0
63691;BME280;49837;57.280;27.070;2024-03-07T04:57:57;101311.7;;;-6.19;100.0
63691;BME280;49837;57.280;27.070;2024-03-07T04:58:57;101310.75;;;-6.17;100.0
63691;BME280;49837;57.280;27.070;2024-03-07T04:59:58;101308.66;;;-6.17;100.0
63691;BME280;49837;57.280;27.070;2024-03-07T05:00:58;101311.61;;;-6.12;100.0
63691;BME280;49837;57.280;27.070;2024-03-07T05:01:58;101310.58;;;-6.12;100.0
63691;BME280;49837;57.280;27.070;2024-03-07T05:02:59;101307.14;;;-6.15;100.0
63691;BME280;49837;57.280;27.070;2024-03-07T05:03:59;101311.02;;;-6.14;100.0
63691;BME280;49837;57.280;27.070;2024-03-07T05:05:00;101310.58;;;-6.12;100.0
63691;BME280;49837;57.280;27.070;2024-03-07T05:06:00;101311.28;;;-6.12;100.0
63691;BME280;49837;57.280;27.070;2024-03-07T05:07:00;101307.08;;;-6.12;100.0
63691;BME280;49837;57.280;27.070;2024-03-07T05:08:01;101307.5;;;-6.1;100.0
63691;BME280;49837;57.280;27.070;2024-03-07T05:09:02;101307.1;;;-6.1;100.0
63691;BME280;49837;57.280;27.070;2024-03-07T05:10:05;101304.91;;;-6.13;100.0
63691;BME280;49837;57.280;27.070;2024-03-07T05:11:04;101306.29;;;-6.1;100.0
63691;BME280;49837;57.280;27.070;2024-03-07T05:12:04;101305.81;;;-6.07;100.0
63691;BME280;49837;57.280;27.070;2024-03-07T05:13:04;101310.19;;;-6.06;100.0